sensor_id;sensor_type;location;lat;lon;timestamp;pressure;altitude;pressure_sealevel;temperature;humidity
48622;BME280;34421;48.944;9.460;2023-02-13T00:00:03;100485.81;;;2.87;70.68
48622;BME280;34421;48.944;9.460;2023-02-13T00:02:29;100491.56;;;2.92;71.70
48622;BME280;34421;48.944;9.460;2023-02-13T00:04:55;100488.72;;;2.95;71.29
48622;BME280;34421;48.944;9.460;2023-02-13T00:07:20;100489.47;;;2.97;72.36
48622;BME280;34421;48.944;9.460;2023-02-13T00:09:45;100477.97;;;2.99;71.89
48622;BME280;34421;48.944;9.460;2023-02-13T00:12:10;100483.22;;;2.99;73.02
48622;BME280;34421;48.944;9.460;2023-02-13T00:14:36;100477.13;;;2.98;73.21
48622;BME280;34421;48.944;9.460;2023-02-13T00:17:02;100484.19;;;2.97;72.72
48622;BME280;34421;48.944;9.460;2023-02-13T00:19:27;100475.44;;;2.97;73.30
48622;BME280;34421;48.944;9.460;2023-02-13T00:21:53;100478.06;;;2.97;73.92
48622;BME280;34421;48.944;9.460;2023-02-13T00:24:18;100478.94;;;2.97;73.70
48622;BME280;34421;48.944;9.460;2023-02-13T00:26:43;100477.97;;;2.99;73.34
48622;BME280;34421;48.944;9.460;2023-02-13T00:29:08;100484.84;;;2.88;73.83
48622;BME280;34421;48.944;9.460;2023-02-13T00:31:34;100476.84;;;2.66;73.59
48622;BME280;34421;48.944;9.460;2023-02-13T00:33:59;100484.03;;;2.51;73.79
48622;BME280;34421;48.944;9.460;2023-02-13T00:36:24;100482.38;;;2.37;73.77
48622;BME280;34421;48.944;9.460;2023-02-13T00:38:49;100473.88;;;2.34;73.74
48622;BME280;34421;48.944;9.460;2023-02-13T00:41:15;100474.00;;;2.32;73.87
48622;BME280;34421;48.944;9.460;2023-02-13T00:43:41;100483.78;;;2.30;74.23
48622;BME280;34421;48.944;9.460;2023-02-13T00:46:06;100480.78;;;2.35;73.67
48622;BME280;34421;48.944;9.460;2023-02-13T00:48:32;100481.44;;;2.38;73.75
48622;BME280;34421;48.944;9.460;2023-02-13T00:50:57;100474.19;;;2.42;73.67
48622;BME280;34421;48.944;9.460;2023-02-13T00:53:23;100475.97;;;2.41;72.98
48622;BME280;34421;48.944;9.460;2023-02-13T00:55:49;100467.97;;;2.43;72.66
48622;BME280;34421;48.944;9.460;2023-02-13T00:58:14;100467.00;;;2.44;73.16
48622;BME280;34421;48.944;9.460;2023-02-13T01:00:40;100470.72;;;2.41;72.77
48622;BME280;34421;48.944;9.460;2023-02-13T01:03:06;100474.84;;;2.33;72.85
48622;BME280;34421;48.944;9.460;2023-02-13T01:05:31;100465.38;;;2.30;72.94
48622;BME280;34421;48.944;9.460;2023-02-13T01:07:56;100468.63;;;2.34;72.47
48622;BME280;34421;48.944;9.460;2023-02-13T01:10:21;100473.78;;;2.35;72.38
48622;BME280;34421;48.944;9.460;2023-02-13T01:12:47;100470.94;;;2.38;72.47
48622;BME280;34421;48.944;9.460;2023-02-13T01:15:12;100470.81;;;2.40;72.06
48622;BME280;34421;48.944;9.460;2023-02-13T01:17:37;100477.72;;;2.41;72.11
48622;BME280;34421;48.944;9.460;2023-02-13T01:20:06;100473.78;;;2.35;72.22
48622;BME280;34421;48.944;9.460;2023-02-13T01:22:32;100469.88;;;2.28;72.06
48622;BME280;34421;48.944;9.460;2023-02-13T01:24:57;100462.22;;;2.25;71.59
48622;BME280;34421;48.944;9.460;2023-02-13T01:27:22;100475.56;;;2.22;71.72
48622;BME280;34421;48.944;9.460;2023-02-13T01:29:47;100468.13;;;2.16;71.53
48622;BME280;34421;48.944;9.460;2023-02-13T01:32:12;100473.59;;;2.13;71.52
48622;BME280;34421;48.944;9.460;2023-02-13T01:34:38;100478.94;;;2.11;71.77
48622;BME280;34421;48.944;9.460;2023-02-13T01:37:03;100483.28;;;2.12;71.32
48622;BME280;34421;48.944;9.460;2023-02-13T01:39:28;100482.22;;;2.15;71.45
48622;BME280;34421;48.944;9.460;2023-02-13T01:41:53;100480.53;;;2.14;71.32
48622;BME280;34421;48.944;9.460;2023-02-13T01:47:02;100478.53;;;2.17;71.24
48622;BME280;34421;48.944;9.460;2023-02-13T01:49:27;100473.50;;;2.14;71.68
48622;BME280;34421;48.944;9.460;2023-02-13T01:51:53;100471.81;;;2.13;71.62
48622;BME280;34421;48.944;9.460;2023-02-13T01:54:21;100475.25;;;2.14;71.71
48622;BME280;34421;48.944;9.460;2023-02-13T01:56:48;100470.22;;;2.11;71.68
48622;BME280;34421;48.944;9.460;2023-02-13T01:59:16;100469.38;;;2.10;71.83
48622;BME280;34421;48.944;9.460;2023-02-13T02:01:42;100469.09;;;2.15;71.60
48622;BME280;34421;48.944;9.460;2023-02-13T02:06:41;100473.16;;;2.19;71.58
48622;BME280;34421;48.944;9.460;2023-02-13T02:09:10;100469.09;;;2.15;71.59
48622;BME280;34421;48.944;9.460;2023-02-13T02:14:20;100472.56;;;2.02;71.51
48622;BME280;34421;48.944;9.460;2023-02-13T02:16:45;100470.38;;;1.96;71.87
48622;BME280;34421;48.944;9.460;2023-02-13T02:19:16;100468.25;;;1.89;71.29
48622;BME280;34421;48.944;9.460;2023-02-13T02:21:50;100464.19;;;1.85;71.52
48622;BME280;34421;48.944;9.460;2023-02-13T02:42:33;100450.53;;;1.67;71.06
48622;BME280;34421;48.944;9.460;2023-02-13T02:45:10;100452.06;;;1.69;70.91
48622;BME280;34421;48.944;9.460;2023-02-13T02:47:54;100442.84;;;1.64;70.87
48622;BME280;34421;48.944;9.460;2023-02-13T02:51:00;100449.25;;;1.59;70.50
48622;BME280;34421;48.944;9.460;2023-02-13T02:53:31;100445.56;;;1.62;71.04
48622;BME280;34421;48.944;9.460;2023-02-13T03:01:25;100449.03;;;1.63;70.84
48622;BME280;34421;48.944;9.460;2023-02-13T03:04:21;100452.91;;;1.57;70.96
48622;BME280;34421;48.944;9.460;2023-02-13T03:07:08;100447.16;;;1.52;70.80
48622;BME280;34421;48.944;9.460;2023-02-13T03:09:35;100449.03;;;1.50;70.87
48622;BME280;34421;48.944;9.460;2023-02-13T03:12:20;100451.66;;;1.50;70.49
48622;BME280;34421;48.944;9.460;2023-02-13T03:15:05;100457.00;;;1.48;70.84
48622;BME280;34421;48.944;9.460;2023-02-13T03:17:31;100456.91;;;1.50;70.95
48622;BME280;34421;48.944;9.460;2023-02-13T03:20:30;100460.50;;;1.49;69.96
48622;BME280;34421;48.944;9.460;2023-02-13T03:23:22;100475.69;;;1.44;70.04
48622;BME280;34421;48.944;9.460;2023-02-13T03:39:23;100486.28;;;1.42;69.50
48622;BME280;34421;48.944;9.460;2023-02-13T03:41:54;100484.81;;;1.38;69.39
48622;BME280;34421;48.944;9.460;2023-02-13T03:44:24;100478.31;;;1.31;69.86
48622;BME280;34421;48.944;9.460;2023-02-13T03:46:53;100481.03;;;1.29;69.98
48622;BME280;34421;48.944;9.460;2023-02-13T03:49:21;100480.28;;;1.27;70.20
48622;BME280;34421;48.944;9.460;2023-02-13T03:52:18;100489.94;;;1.27;70.06
48622;BME280;34421;48.944;9.460;2023-02-13T03:54:47;100483.56;;;1.31;70.39
48622;BME280;34421;48.944;9.460;2023-02-13T03:57:33;100491.72;;;1.26;70.02
48622;BME280;34421;48.944;9.460;2023-02-13T04:00:20;100493.91;;;1.20;70.09
48622;BME280;34421;48.944;9.460;2023-02-13T04:03:00;100494.84;;;1.19;70.14
48622;BME280;34421;48.944;9.460;2023-02-13T04:05:29;100504.63;;;1.17;70.42
48622;BME280;34421;48.944;9.460;2023-02-13T04:07:57;100498.53;;;1.16;70.17
48622;BME280;34421;48.944;9.460;2023-02-13T04:10:22;100506.50;;;1.14;69.88
48622;BME280;34421;48.944;9.460;2023-02-13T04:12:56;100508.75;;;1.06;69.97
48622;BME280;34421;48.944;9.460;2023-02-13T04:18:09;100510.75;;;1.03;70.28
48622;BME280;34421;48.944;9.460;2023-02-13T04:20:37;100512.81;;;0.98;70.07
48622;BME280;34421;48.944;9.460;2023-02-13T04:23:07;100514.41;;;1.00;70.11
48622;BME280;34421;48.944;9.460;2023-02-13T04:25:32;100510.94;;;1.00;69.82
48622;BME280;34421;48.944;9.460;2023-02-13T04:27:58;100509.59;;;1.07;70.57
48622;BME280;34421;48.944;9.460;2023-02-13T04:30:23;100507.63;;;1.10;70.85
48622;BME280;34421;48.944;9.460;2023-02-13T04:32:48;100516.09;;;1.01;70.11
48622;BME280;34421;48.944;9.460;2023-02-13T04:35:14;100515.63;;;0.95;70.18
48622;BME280;34421;48.944;9.460;2023-02-13T04:37:39;100519.84;;;0.97;70.01
48622;BME280;34421;48.944;9.460;2023-02-13T04:40:04;100517.34;;;0.96;70.28
48622;BME280;34421;48.944;9.460;2023-02-13T04:42:30;100520.38;;;0.89;70.48
48622;BME280;34421;48.944;9.460;2023-02-13T04:44:55;100511.19;;;0.82;70.72
48622;BME280;34421;48.944;9.460;2023-02-13T04:47:20;100518.41;;;0.79;70.73
48622;BME280;34421;48.944;9.460;2023-02-13T04:49:45;100502.13;;;0.74;70.11
48622;BME280;34421;48.944;9.460;2023-02-13T04:52:11;100513.38;;;0.76;70.28
48622;BME280;34421;48.944;9.460;2023-02-13T04:54:36;100512.34;;;0.78;70.27
48622;BME280;34421;48.944;9.460;2023-02-13T04:57:01;100511.19;;;0.82;69.97
48622;BME280;34421;48.944;9.460;2023-02-13T04:59:26;100515.41;;;0.85;69.67
48622;BME280;34421;48.944;9.460;2023-02-13T05:01:51;100508.28;;;0.87;69.71
48622;BME280;34421;48.944;9.460;2023-02-13T05:04:18;100508.38;;;0.85;70.14
48622;BME280;34421;48.944;9.460;2023-02-13T05:06:43;100507.72;;;0.82;69.92
48622;BME280;34421;48.944;9.460;2023-02-13T05:09:09;100511.50;;;0.78;69.15
48622;BME280;34421;48.944;9.460;2023-02-13T05:11:34;100522.06;;;0.76;69.96
48622;BME280;34421;48.944;9.460;2023-02-13T05:13:59;100517.84;;;0.74;70.41
48622;BME280;34421;48.944;9.460;2023-02-13T05:16:24;100524.81;;;0.75;69.36
48622;BME280;34421;48.944;9.460;2023-02-13T05:18:50;100518.69;;;0.74;69.33
48622;BME280;34421;48.944;9.460;2023-02-13T05:21:18;100525.44;;;0.78;69.54
48622;BME280;34421;48.944;9.460;2023-02-13T05:24:02;100518.50;;;0.77;69.77
48622;BME280;34421;48.944;9.460;2023-02-13T05:26:28;100521.22;;;0.76;68.99
48622;BME280;34421;48.944;9.460;2023-02-13T05:28:53;100523.00;;;0.75;69.15
48622;BME280;34421;48.944;9.460;2023-02-13T05:31:37;100514.19;;;0.76;69.97
48622;BME280;34421;48.944;9.460;2023-02-13T05:34:02;100522.91;;;0.77;69.06
48622;BME280;34421;48.944;9.460;2023-02-13T05:36:27;100520.41;;;0.75;69.41
48622;BME280;34421;48.944;9.460;2023-02-13T05:38:52;100516.94;;;0.75;68.74
48622;BME280;34421;48.944;9.460;2023-02-13T05:41:18;100528.66;;;0.69;69.03
48622;BME280;34421;48.944;9.460;2023-02-13T05:43:43;100517.69;;;0.62;69.82
48622;BME280;34421;48.944;9.460;2023-02-13T05:46:08;100516.31;;;0.57;69.39
48622;BME280;34421;48.944;9.460;2023-02-13T05:48:34;100516.41;;;0.55;69.95
48622;BME280;34421;48.944;9.460;2023-02-13T05:51:00;100519.03;;;0.55;70.11
48622;BME280;34421;48.944;9.460;2023-02-13T05:53:25;100518.06;;;0.56;69.80
48622;BME280;34421;48.944;9.460;2023-02-13T05:55:50;100517.88;;;0.59;69.74
48622;BME280;34421;48.944;9.460;2023-02-13T05:58:16;100520.69;;;0.56;69.65
48622;BME280;34421;48.944;9.460;2023-02-13T06:00:41;100517.44;;;0.53;69.69
48622;BME280;34421;48.944;9.460;2023-02-13T06:03:07;100526.50;;;0.47;69.37
48622;BME280;34421;48.944;9.460;2023-02-13T06:05:32;100506.31;;;0.49;70.24
48622;BME280;34421;48.944;9.460;2023-02-13T06:07:57;100518.25;;;0.53;69.57
48622;BME280;34421;48.944;9.460;2023-02-13T06:10:22;100515.25;;;0.59;70.72
48622;BME280;34421;48.944;9.460;2023-02-13T06:12:47;100514.16;;;0.63;70.52
48622;BME280;34421;48.944;9.460;2023-02-13T06:15:13;100508.59;;;0.68;71.04
48622;BME280;34421;48.944;9.460;2023-02-13T06:17:38;100516.38;;;0.70;71.05
48622;BME280;34421;48.944;9.460;2023-02-13T06:20:03;100516.81;;;0.76;70.52
48622;BME280;34421;48.944;9.460;2023-02-13T06:22:28;100524.22;;;0.84;71.45
48622;BME280;34421;48.944;9.460;2023-02-13T06:24:54;100520.75;;;0.83;70.94
48622;BME280;34421;48.944;9.460;2023-02-13T06:27:19;100524.31;;;0.68;70.86
48622;BME280;34421;48.944;9.460;2023-02-13T06:29:44;100529.31;;;0.58;70.90
48622;BME280;34421;48.944;9.460;2023-02-13T06:32:09;100526.25;;;0.52;71.13
48622;BME280;34421;48.944;9.460;2023-02-13T06:34:34;100522.88;;;0.50;71.95
48622;BME280;34421;48.944;9.460;2023-02-13T06:37:00;100527.00;;;0.54;71.64
48622;BME280;34421;48.944;9.460;2023-02-13T06:39:25;100530.34;;;0.56;71.25
48622;BME280;34421;48.944;9.460;2023-02-13T06:41:50;100527.44;;;0.60;70.48
48622;BME280;34421;48.944;9.460;2023-02-13T06:44:15;100528.00;;;0.65;71.12
48622;BME280;34421;48.944;9.460;2023-02-13T06:46:40;100531.16;;;0.71;70.24
48622;BME280;34421;48.944;9.460;2023-02-13T06:49:06;100531.28;;;0.69;70.34
48622;BME280;34421;48.944;9.460;2023-02-13T06:51:31;100532.66;;;0.75;70.10
48622;BME280;34421;48.944;9.460;2023-02-13T06:53:56;100540.88;;;0.83;70.08
48622;BME280;34421;48.944;9.460;2023-02-13T06:56:21;100540.41;;;0.90;70.23
48622;BME280;34421;48.944;9.460;2023-02-13T06:58:46;100538.31;;;0.96;70.01
48622;BME280;34421;48.944;9.460;2023-02-13T07:01:12;100540.44;;;1.03;70.73
48622;BME280;34421;48.944;9.460;2023-02-13T07:03:37;100535.53;;;1.11;70.49
48622;BME280;34421;48.944;9.460;2023-02-13T07:06:02;100541.16;;;1.20;70.72
48622;BME280;34421;48.944;9.460;2023-02-13T07:08:27;100532.75;;;1.27;71.22
48622;BME280;34421;48.944;9.460;2023-02-13T07:10:53;100533.03;;;1.37;71.26
48622;BME280;34421;48.944;9.460;2023-02-13T07:13:18;100531.66;;;1.44;71.40
48622;BME280;34421;48.944;9.460;2023-02-13T07:15:43;100539.13;;;1.50;71.25
48622;BME280;34421;48.944;9.460;2023-02-13T07:18:09;100536.22;;;1.55;71.66
48622;BME280;34421;48.944;9.460;2023-02-13T07:20:34;100548.06;;;1.60;71.80
48622;BME280;34421;48.944;9.460;2023-02-13T07:23:00;100544.94;;;1.68;71.58
48622;BME280;34421;48.944;9.460;2023-02-13T07:25:26;100536.00;;;1.71;71.71
48622;BME280;34421;48.944;9.460;2023-02-13T07:27:51;100542.50;;;1.52;71.99
48622;BME280;34421;48.944;9.460;2023-02-13T07:30:16;100539.75;;;1.41;71.91
48622;BME280;34421;48.944;9.460;2023-02-13T07:32:42;100538.00;;;1.27;71.29
48622;BME280;34421;48.944;9.460;2023-02-13T07:35:07;100545.25;;;1.24;72.16
48622;BME280;34421;48.944;9.460;2023-02-13T07:37:32;100535.28;;;1.29;72.07
48622;BME280;34421;48.944;9.460;2023-02-13T07:39:57;100537.72;;;1.32;72.05
48622;BME280;34421;48.944;9.460;2023-02-13T07:42:23;100536.91;;;1.44;71.71
48622;BME280;34421;48.944;9.460;2023-02-13T07:44:48;100549.97;;;1.58;71.52
48622;BME280;34421;48.944;9.460;2023-02-13T07:47:13;100541.28;;;1.71;71.46
48622;BME280;34421;48.944;9.460;2023-02-13T07:49:38;100545.47;;;1.86;71.39
48622;BME280;34421;48.944;9.460;2023-02-13T07:52:04;100542.03;;;1.98;71.09
48622;BME280;34421;48.944;9.460;2023-02-13T07:54:29;100541.19;;;2.11;70.93
48622;BME280;34421;48.944;9.460;2023-02-13T07:56:55;100546.53;;;2.22;70.68
48622;BME280;34421;48.944;9.460;2023-02-13T07:59:20;100534.34;;;2.34;70.04
48622;BME280;34421;48.944;9.460;2023-02-13T08:01:45;100542.09;;;2.48;69.76
48622;BME280;34421;48.944;9.460;2023-02-13T08:04:10;100541.31;;;2.59;69.36
48622;BME280;34421;48.944;9.460;2023-02-13T08:06:37;100548.59;;;2.68;69.26
48622;BME280;34421;48.944;9.460;2023-02-13T08:09:02;100546.00;;;2.79;68.58
48622;BME280;34421;48.944;9.460;2023-02-13T08:11:46;100547.06;;;2.89;68.53
48622;BME280;34421;48.944;9.460;2023-02-13T08:14:18;100544.59;;;2.99;69.16
48622;BME280;34421;48.944;9.460;2023-02-13T08:16:43;100548.03;;;3.12;68.79
48622;BME280;34421;48.944;9.460;2023-02-13T08:19:08;100548.50;;;3.17;68.62
48622;BME280;34421;48.944;9.460;2023-02-13T08:21:33;100537.44;;;3.25;69.14
48622;BME280;34421;48.944;9.460;2023-02-13T08:24:00;100535.34;;;3.41;68.17
48622;BME280;34421;48.944;9.460;2023-02-13T08:26:26;100539.59;;;3.55;68.30
48622;BME280;34421;48.944;9.460;2023-02-13T08:28:51;100537.00;;;3.67;67.88
48622;BME280;34421;48.944;9.460;2023-02-13T08:31:16;100533.44;;;3.79;67.49
48622;BME280;34421;48.944;9.460;2023-02-13T08:33:41;100529.03;;;3.91;67.61
48622;BME280;34421;48.944;9.460;2023-02-13T08:36:06;100531.91;;;3.99;67.33
48622;BME280;34421;48.944;9.460;2023-02-13T08:38:32;100530.97;;;4.11;68.44
48622;BME280;34421;48.944;9.460;2023-02-13T08:40:57;100537.44;;;4.18;66.86
48622;BME280;34421;48.944;9.460;2023-02-13T08:43:23;100538.41;;;4.28;66.86
48622;BME280;34421;48.944;9.460;2023-02-13T08:45:48;100530.47;;;4.40;68.29
48622;BME280;34421;48.944;9.460;2023-02-13T08:48:13;100533.13;;;4.51;67.35
48622;BME280;34421;48.944;9.460;2023-02-13T08:50:38;100532.16;;;4.63;66.95
48622;BME280;34421;48.944;9.460;2023-02-13T08:53:04;100530.22;;;4.76;67.35
48622;BME280;34421;48.944;9.460;2023-02-13T08:55:29;100535.94;;;4.93;66.80
48622;BME280;34421;48.944;9.460;2023-02-13T08:57:58;100526.34;;;5.03;66.92
48622;BME280;34421;48.944;9.460;2023-02-13T09:00:23;100535.50;;;5.20;66.58
48622;BME280;34421;48.944;9.460;2023-02-13T09:02:48;100531.13;;;5.41;66.95
48622;BME280;34421;48.944;9.460;2023-02-13T09:05:13;100527.91;;;6.62;67.10
48622;BME280;34421;48.944;9.460;2023-02-13T09:07:39;100516.50;;;10.92;60.37
48622;BME280;34421;48.944;9.460;2023-02-13T09:10:04;100518.25;;;15.26;50.88
48622;BME280;34421;48.944;9.460;2023-02-13T09:12:30;100520.53;;;16.63;45.81
48622;BME280;34421;48.944;9.460;2023-02-13T09:14:55;100509.22;;;18.16;42.57
48622;BME280;34421;48.944;9.460;2023-02-13T09:17:20;100511.72;;;20.83;37.52
48622;BME280;34421;48.944;9.460;2023-02-13T09:19:45;100503.19;;;23.21;33.07
48622;BME280;34421;48.944;9.460;2023-02-13T09:22:11;100495.25;;;25.09;29.03
48622;BME280;34421;48.944;9.460;2023-02-13T09:24:36;100496.41;;;26.62;27.46
48622;BME280;34421;48.944;9.460;2023-02-13T09:27:03;100499.63;;;27.78;25.19
48622;BME280;34421;48.944;9.460;2023-02-13T09:29:28;100496.09;;;28.73;23.37
48622;BME280;34421;48.944;9.460;2023-02-13T09:31:55;100494.63;;;29.36;22.47
48622;BME280;34421;48.944;9.460;2023-02-13T09:34:20;100486.47;;;29.94;20.98
48622;BME280;34421;48.944;9.460;2023-02-13T09:36:49;100495.03;;;30.40;20.67
48622;BME280;34421;48.944;9.460;2023-02-13T09:39:15;100495.13;;;30.78;19.37
48622;BME280;34421;48.944;9.460;2023-02-13T09:41:41;100487.41;;;31.18;18.63
48622;BME280;34421;48.944;9.460;2023-02-13T09:44:15;100487.09;;;31.85;19.14
48622;BME280;34421;48.944;9.460;2023-02-13T09:47:10;100481.56;;;32.96;17.92
48622;BME280;34421;48.944;9.460;2023-02-13T09:49:39;100476.25;;;33.58;17.09
48622;BME280;34421;48.944;9.460;2023-02-13T09:52:06;100484.41;;;33.94;16.41
48622;BME280;34421;48.944;9.460;2023-02-13T09:54:32;100479.69;;;33.95;16.12
48622;BME280;34421;48.944;9.460;2023-02-13T09:57:00;100474.50;;;34.33;16.00
48622;BME280;34421;48.944;9.460;2023-02-13T10:01:59;100470.25;;;35.10;15.93
48622;BME280;34421;48.944;9.460;2023-02-13T10:07:09;100480.13;;;35.64;14.33
48622;BME280;34421;48.944;9.460;2023-02-13T10:09:42;100468.06;;;35.59;14.20
48622;BME280;34421;48.944;9.460;2023-02-13T10:12:21;100479.50;;;35.49;13.78
48622;BME280;34421;48.944;9.460;2023-02-13T10:17:16;100471.19;;;35.67;14.02
48622;BME280;34421;48.944;9.460;2023-02-13T10:19:49;100464.41;;;35.85;14.06
48622;BME280;34421;48.944;9.460;2023-02-13T10:22:16;100467.63;;;35.96;13.61
48622;BME280;34421;48.944;9.460;2023-02-13T10:24:46;100472.81;;;35.59;13.78
48622;BME280;34421;48.944;9.460;2023-02-13T10:27:18;100467.75;;;35.52;13.90
48622;BME280;34421;48.944;9.460;2023-02-13T10:35:19;100456.06;;;35.94;13.72
48622;BME280;34421;48.944;9.460;2023-02-13T10:37:48;100461.53;;;36.11;13.92
48622;BME280;34421;48.944;9.460;2023-02-13T10:40:16;100456.53;;;36.34;13.52
48622;BME280;34421;48.944;9.460;2023-02-13T10:42:46;100452.91;;;36.13;13.25
48622;BME280;34421;48.944;9.460;2023-02-13T11:03:25;100426.56;;;35.89;13.70
48622;BME280;34421;48.944;9.460;2023-02-13T11:05:51;100419.09;;;35.81;13.76
48622;BME280;34421;48.944;9.460;2023-02-13T11:08:19;100417.41;;;35.50;13.97
48622;BME280;34421;48.944;9.460;2023-02-13T11:10:45;100412.84;;;35.54;13.74
48622;BME280;34421;48.944;9.460;2023-02-13T11:13:14;100409.63;;;35.35;13.88
48622;BME280;34421;48.944;9.460;2023-02-13T11:15:40;100409.66;;;35.00;14.21
48622;BME280;34421;48.944;9.460;2023-02-13T11:18:17;100403.00;;;34.84;14.29
48622;BME280;34421;48.944;9.460;2023-02-13T11:20:43;100402.81;;;34.80;14.55
48622;BME280;34421;48.944;9.460;2023-02-13T11:25:55;100398.13;;;34.55;14.67
48622;BME280;34421;48.944;9.460;2023-02-13T11:28:21;100404.47;;;34.55;14.78
48622;BME280;34421;48.944;9.460;2023-02-13T11:30:47;100409.47;;;34.36;14.55
48622;BME280;34421;48.944;9.460;2023-02-13T11:35:41;100406.50;;;33.84;14.87
48622;BME280;34421;48.944;9.460;2023-02-13T11:38:09;100410.81;;;33.67;14.75
48622;BME280;34421;48.944;9.460;2023-02-13T11:40:35;100415.66;;;33.53;15.45
48622;BME280;34421;48.944;9.460;2023-02-13T11:43:01;100408.16;;;33.31;15.68
48622;BME280;34421;48.944;9.460;2023-02-13T11:45:29;100405.63;;;33.12;15.88
48622;BME280;34421;48.944;9.460;2023-02-13T11:47:54;100401.94;;;32.58;15.65
48622;BME280;34421;48.944;9.460;2023-02-13T11:50:32;100407.66;;;32.20;16.08
48622;BME280;34421;48.944;9.460;2023-02-13T11:53:08;100404.47;;;31.25;17.36
48622;BME280;34421;48.944;9.460;2023-02-13T11:55:41;100410.09;;;29.43;18.38
48622;BME280;34421;48.944;9.460;2023-02-13T12:00:37;100422.81;;;25.45;21.82
48622;BME280;34421;48.944;9.460;2023-02-13T12:05:54;100420.22;;;22.44;24.83
48622;BME280;34421;48.944;9.460;2023-02-13T12:08:23;100413.84;;;21.51;26.42
48622;BME280;34421;48.944;9.460;2023-02-13T12:10:48;100412.34;;;20.71;27.80
48622;BME280;34421;48.944;9.460;2023-02-13T12:13:17;100421.56;;;19.97;28.74
48622;BME280;34421;48.944;9.460;2023-02-13T12:15:45;100413.16;;;19.37;29.75
48622;BME280;34421;48.944;9.460;2023-02-13T12:23:19;100410.16;;;17.91;32.09
48622;BME280;34421;48.944;9.460;2023-02-13T12:28:13;100404.38;;;17.21;33.58
48622;BME280;34421;48.944;9.460;2023-02-13T12:46:36;100399.72;;;15.72;37.47
48622;BME280;34421;48.944;9.460;2023-02-13T12:54:02;100383.13;;;15.13;37.91
48622;BME280;34421;48.944;9.460;2023-02-13T13:01:47;100387.53;;;14.77;38.82
48622;BME280;34421;48.944;9.460;2023-02-13T13:09:30;100387.94;;;14.74;39.25
48622;BME280;34421;48.944;9.460;2023-02-13T13:22:17;100377.25;;;13.94;41.13
48622;BME280;34421;48.944;9.460;2023-02-13T13:24:48;100370.63;;;13.89;41.23
48622;BME280;34421;48.944;9.460;2023-02-13T13:27:22;100371.09;;;13.78;42.07
48622;BME280;34421;48.944;9.460;2023-02-13T13:29:53;100370.34;;;13.70;41.75
48622;BME280;34421;48.944;9.460;2023-02-13T13:32:20;100364.69;;;13.64;42.31
48622;BME280;34421;48.944;9.460;2023-02-13T13:34:45;100362.84;;;13.65;42.09
48622;BME280;34421;48.944;9.460;2023-02-13T13:42:40;100364.16;;;13.69;42.23
48622;BME280;34421;48.944;9.460;2023-02-13T13:45:11;100371.16;;;13.70;42.71
48622;BME280;34421;48.944;9.460;2023-02-13T13:50:24;100362.69;;;13.81;42.36
48622;BME280;34421;48.944;9.460;2023-02-13T13:53:07;100360.84;;;13.82;42.88
48622;BME280;34421;48.944;9.460;2023-02-13T13:58:37;100357.13;;;13.83;42.77
48622;BME280;34421;48.944;9.460;2023-02-13T14:03:54;100352.16;;;13.80;43.13
48622;BME280;34421;48.944;9.460;2023-02-13T14:06:23;100357.13;;;13.83;42.98
48622;BME280;34421;48.944;9.460;2023-02-13T14:08:57;100354.56;;;13.89;43.12
48622;BME280;34421;48.944;9.460;2023-02-13T14:11:39;100349.56;;;13.86;42.68
48622;BME280;34421;48.944;9.460;2023-02-13T14:16:48;100350.31;;;13.80;42.97
48622;BME280;34421;48.944;9.460;2023-02-13T14:24:41;100343.88;;;13.60;43.66
48622;BME280;34421;48.944;9.460;2023-02-13T14:27:14;100349.59;;;13.57;43.61
48622;BME280;34421;48.944;9.460;2023-02-13T14:29:47;100351.97;;;13.52;43.86
48622;BME280;34421;48.944;9.460;2023-02-13T14:32:26;100354.81;;;13.50;43.55
48622;BME280;34421;48.944;9.460;2023-02-13T14:34:55;100351.16;;;13.51;43.41
48622;BME280;34421;48.944;9.460;2023-02-13T14:37:32;100349.28;;;13.52;43.71
48622;BME280;34421;48.944;9.460;2023-02-13T14:42:34;100354.00;;;13.50;44.01
48622;BME280;34421;48.944;9.460;2023-02-13T14:45:00;100353.53;;;13.46;44.08
48622;BME280;34421;48.944;9.460;2023-02-13T14:47:38;100351.75;;;13.38;43.71
48622;BME280;34421;48.944;9.460;2023-02-13T14:50:05;100360.34;;;13.34;44.56
48622;BME280;34421;48.944;9.460;2023-02-13T14:52:31;100358.56;;;13.26;44.38
48622;BME280;34421;48.944;9.460;2023-02-13T14:55:23;100367.25;;;13.28;44.20
48622;BME280;34421;48.944;9.460;2023-02-13T14:57:46;100358.63;;;13.18;44.29
48622;BME280;34421;48.944;9.460;2023-02-13T15:05:41;100352.03;;;13.06;44.95
48622;BME280;34421;48.944;9.460;2023-02-13T15:08:14;100353.97;;;12.97;45.12
48622;BME280;34421;48.944;9.460;2023-02-13T15:10:43;100339.63;;;12.90;44.75
48622;BME280;34421;48.944;9.460;2023-02-13T15:13:14;100349.44;;;12.97;44.78
48622;BME280;34421;48.944;9.460;2023-02-13T15:15:39;100351.00;;;12.92;45.39
48622;BME280;34421;48.944;9.460;2023-02-13T15:18:09;100345.25;;;12.80;45.82
48622;BME280;34421;48.944;9.460;2023-02-13T15:20:36;100343.16;;;12.67;45.79
48622;BME280;34421;48.944;9.460;2023-02-13T15:23:03;100340.72;;;12.58;45.10
48622;BME280;34421;48.944;9.460;2023-02-13T15:27:55;100350.03;;;12.39;45.79
48622;BME280;34421;48.944;9.460;2023-02-13T15:30:26;100346.06;;;12.35;46.36
48622;BME280;34421;48.944;9.460;2023-02-13T15:32:55;100347.59;;;12.29;46.34
48622;BME280;34421;48.944;9.460;2023-02-13T15:37:46;100343.72;;;12.00;46.73
48622;BME280;34421;48.944;9.460;2023-02-13T15:40:12;100340.94;;;11.85;47.18
48622;BME280;34421;48.944;9.460;2023-02-13T15:42:38;100343.78;;;11.76;47.60
48622;BME280;34421;48.944;9.460;2023-02-13T15:45:03;100341.47;;;11.64;47.25
48622;BME280;34421;48.944;9.460;2023-02-13T15:47:29;100345.34;;;11.54;48.27
48622;BME280;34421;48.944;9.460;2023-02-13T15:49:55;100343.22;;;11.41;47.90
48622;BME280;34421;48.944;9.460;2023-02-13T15:52:26;100341.06;;;11.28;49.30
48622;BME280;34421;48.944;9.460;2023-02-13T15:54:54;100347.09;;;11.14;49.13